• Join FlightAware (Why Join?)
  • Login
  • US Flag 
02:34PM EDT


 

Airport Tracker/Info


-or-


 

Live Flight TrackerFlight Track Log ✈ SWA862 ✈ 07-Apr-2013 ✈ KTPA - KRDU

Flight Track Log - Related Links

Times and Time Zones

All times are in EDT time to prevent confusion due to time zone crossing. See the SWA862 flight status page for this flight to view local times or setup timezone preferences in your user account.

Time Position Orientation Groundspeed Altitude Reporting Facility
EDT Latitude Longitude Course Direction KTS MPH feet Rate Location/Type
06:06PM 27.9500 -82.5500 North 171 197 1,600  Level Tampa TRACON
06:07PM 27.9167 -82.5667 204° Southwest 216 249 2,900 2,640 Climbing Tampa TRACON
06:08PM 27.8667 -82.6000 211° Southwest 242 278 5,900 3,360 Climbing Tampa TRACON
06:09PM 27.8667 -82.7000 270° West 290 334 9,700 2,220 Climbing Tampa TRACON
06:11PM 27.9828 -82.7186 352° North 322 371 12,000 1,680 Climbing Jacksonville Center
06:12PM 28.6050 -82.5833 North  Level FlightAware Approximate
06:12PM 28.0808 -82.6833 18° North 344 396 14,400  Level Jacksonville Center
06:13PM 28.1831 -82.6478 17° North 359 413 17,900 2,940 Climbing Jacksonville Center
06:14PM 28.2914 -82.6097 17° North 378 435 20,300 2,580 Climbing Jacksonville Center
06:15PM 28.4042 -82.5811 13° North 399 459 23,100 2,640 Climbing Jacksonville Center
06:16PM 28.5211 -82.5853 358° North 407 468 25,600 2,160 Climbing Jacksonville Center
06:17PM 28.6400 -82.5897 358° North 418 481 27,500 1,920 Climbing Jacksonville Center
06:18PM 28.7736 -82.6014 356° North 426 490 29,500 1,860 Climbing Jacksonville Center
06:19PM 28.8989 -82.6197 353° North 438 504 31,300 1,920 Climbing Jacksonville Center
06:20PM 29.0219 -82.6361 353° North 444 511 33,400 1,920 Climbing Jacksonville Center
06:21PM 29.1431 -82.6547 352° North 444 511 35,200 1,260 Climbing Jacksonville Center
06:22PM 29.2642 -82.6711 353° North 444 511 36,000 360 Climbing Jacksonville Center
06:23PM 29.3833 -82.6875 353° North 439 505 36,000  Level Jacksonville Center
06:24PM 29.5044 -82.6922 358° North 434 499 36,000 600 Level Jacksonville Center
06:25PM 29.6169 -82.6942 359° North 442 509 37,300 960 Climbing Jacksonville Center
06:26PM 29.7403 -82.6942 360° North 442 509 38,000 300 Climbing Jacksonville Center
06:27PM 29.8633 -82.6939 360° North 437 503 38,000  Level Jacksonville Center
06:28PM 29.9867 -82.6911 North 437 503 38,000 240 Level Jacksonville Center
06:29PM 30.1097 -82.6883 North 437 503 38,500 480 Climbing Jacksonville Center
06:30PM 30.2372 -82.6858 North 442 509 39,000 240 Climbing Jacksonville Center
06:31PM 30.3603 -82.6856 360° North 442 509 39,000  Level Jacksonville Center
06:32PM 30.4856 -82.6828 North 442 509 39,000  Level Jacksonville Center
06:33PM 30.6067 -82.6417 16° North 442 509 39,000  Level Jacksonville Center
06:34PM 30.7275 -82.5808 23° Northeast 452 520 39,000  Level Jacksonville Center
06:35PM 30.8464 -82.5222 23° Northeast 457 526 39,000  Level Jacksonville Center
06:36PM 30.9653 -82.4636 23° Northeast 462 532 39,000  Level Jacksonville Center
06:37PM 31.0842 -82.4050 23° Northeast 462 532 39,000  Level Jacksonville Center
06:38PM 31.2028 -82.3486 22° Northeast 462 532 39,000  Level Jacksonville Center
06:39PM 31.3258 -82.2919 21° North 462 532 39,000  Level Jacksonville Center
06:40PM 31.4444 -82.2325 23° Northeast 462 532 39,000  Level Jacksonville Center
06:41PM 31.5675 -82.1733 22° Northeast 462 532 39,000  Level Jacksonville Center
06:42PM 31.6839 -82.1114 24° Northeast 462 532 39,000  Level Jacksonville Center
06:43PM 31.8172 -82.0467 22° Northeast 456 525 39,000  Level Jacksonville Center
06:44PM 31.9358 -81.9869 23° Northeast 456 525 39,000  Level Jacksonville Center
06:45PM 32.0461 -81.9342 22° Northeast 461 531 39,000  Level Jacksonville Center
06:46PM 32.1792 -81.8739 21° North 461 531 39,000  Level Jacksonville Center
06:47PM 32.3019 -81.8161 22° Northeast 466 536 39,000  Level Jacksonville Center
06:48PM 32.4078 -81.7656 22° Northeast 460 529 39,000  Level Jacksonville Center
06:49PM 32.5408 -81.7022 22° Northeast 460 529 39,000  Level Jacksonville Center
06:50PM 32.6469 -81.6492 23° Northeast 453 521 39,000  Level Jacksonville Center
06:51PM 32.7653 -81.5808 26° Northeast 453 521 39,000  Level Jacksonville Center
06:52PM 32.8728 -81.5000 32° Northeast 453 521 39,000  Level Jacksonville Center
06:53PM 32.9867 -81.4167 32° Northeast 463 533 39,000  Level Jacksonville Center
06:54PM 33.1006 -81.3328 32° Northeast 469 540 39,000  Level Jacksonville Center
06:55PM 33.2122 -81.2514 31° Northeast 469 540 39,000  Level Jacksonville Center
06:56PM 33.3239 -81.1675 32° Northeast 469 540 39,000  Level Jacksonville Center
06:57PM 33.4353 -81.0856 32° Northeast 469 540 39,000  Level Jacksonville Center
06:58PM 33.5489 -81.0036 31° Northeast 469 540 39,000  Level Jacksonville Center
06:59PM 33.6583 -80.9214 32° Northeast 463 533 39,000  Level Jacksonville Center
07:00PM 33.7697 -80.8389 32° Northeast 463 533 39,000 -300 Level Jacksonville Center
07:01PM 33.8789 -80.7564 32° Northeast 463 533 38,400 -1,500 Descending Jacksonville Center
07:02PM 33.9858 -80.6736 33° Northeast 463 533 36,000 -2,700 Descending Jacksonville Center
07:03PM 34.0931 -80.5931 32° Northeast 463 533 33,000 -2,880 Descending Jacksonville Center
07:04PM 34.2019 -80.5097 32° Northeast 463 533 30,300 -2,280 Descending Jacksonville Center
07:05PM 34.3614 -80.3894 32° Northeast 427 491 27,300 -1,860 Descending Washington Center
07:06PM 34.4733 -80.3028 33° Northeast 427 491 25,700 -1,860 Descending Washington Center
07:07PM 34.5722 -80.2253 33° Northeast 432 497 23,600 -1,380 Descending Washington Center
07:08PM 34.6692 -80.1500 33° Northeast 425 489 23,000 -300 Descending Washington Center
07:09PM 34.7658 -80.0769 32° Northeast 415 478 23,000  Level Washington Center
07:10PM 34.8567 -79.9858 39° Northeast 415 478 23,000  Level Washington Center
07:11PM 34.9417 -79.8917 42° Northeast 415 478 23,000  Level Washington Center
07:12PM 35.0283 -79.7975 42° Northeast 410 472 23,000 -180 Level Washington Center
07:13PM 35.1153 -79.7028 42° Northeast 410 472 22,700 -1,200 Descending Washington Center
07:14PM 35.1978 -79.6081 43° Northeast 405 466 20,600 -1,800 Descending Washington Center
07:15PM 35.2792 -79.5433 33° Northeast 400 460 19,100 -1,860 Descending Washington Center
07:16PM 35.3367 -79.5081 27° Northeast 377 434 17,800 -2,100 Descending Washington Center
07:16PM 35.3794 -79.4744 33° Northeast 379 436 17,000 -1,320 Descending Washington Center
07:17PM 35.4306 -79.4436 26° Northeast 363 418 16,500 -1,020 Descending Washington Center
07:17PM 35.4647 -79.4172 32° Northeast 357 411 16,000 -1,320 Descending Washington Center
07:18PM 35.5097 -79.3811 33° Northeast 335 386 15,200 -1,440 Descending Washington Center
07:18PM 35.5361 -79.3417 51° Northeast 337 388 14,600 -1,620 Descending Washington Center
07:19PM 35.5669 -79.2844 56° Northeast 343 395 13,600 -1,500 Descending Washington Center
07:19PM 35.5844 -79.2569 52° Northeast 331 381 13,100 -1,500 Descending Washington Center
07:20PM 35.6242 -79.1925 53° Northeast 340 391 12,100 -1,620 Descending Washington Center
07:20PM 35.6483 -79.1525 53° Northeast 342 394 11,500 -1,560 Descending Washington Center
07:21PM 35.6811 -79.0953 55° Northeast 330 380 10,400 -1,440 Descending Washington Center
07:21PM 35.6944 -79.0728 54° Northeast 327 376 10,100 -1,620 Descending Washington Center
07:22PM 35.7361 -79.0006 55° Northeast 321 369 8,800 -1,440 Descending Washington Center
07:22PM 35.7469 -78.9856 48° Northeast 321 369 8,700 -660 Descending Washington Center
07:23PM 35.7800 -78.9281 55° Northeast 306 352 8,200 -600 Descending Washington Center
07:23PM 35.7972 -78.9058 46° Northeast 308 354 8,100 -120 Descending Washington Center
07:24PM 35.8414 -78.8922 14° North 236 272 8,100  Level Washington Center
07:24PM 35.8625 -78.8853 15° North 257 296 8,100 -840 Level Washington Center
07:25PM 35.9128 -78.8722 12° North 237 273 7,300 -1,500 Descending Washington Center
07:26PM 35.9725 -78.8258 32° Northeast 255 293 5,700 -1,440 Descending Washington Center
07:27PM 36.0119 -78.7581 54° Northeast 243 280 4,400 -1,260 Descending Washington Center
07:28PM 35.9761 -78.6950 125° Southeast 213 245 3,100 -1,020 Descending Washington Center
07:29PM 35.9361 -78.7089 196° South 161 185 2,300 -900 Descending Washington Center
07:30PM 35.9103 -78.7414 226° Southwest 125 144 1,300 -840 Descending Washington Center
07:31PM 35.8842 -78.7736 225° Southwest 129 148 700 -600 Descending Washington Center
07:33PM 35.8667 -78.7833 191° South  Level FlightAware Approximate
07:40PM 35.8776 -78.7875 191° South  Level Estimated
07:41PM 35.8776 -78.7875 191° South  Level Estimated